EDT,Max TemperatureF,Mean TemperatureF,Min TemperatureF,Max Dew PointF,MeanDew PointF,Min DewpointF,Max Humidity, Mean Humidity, Min Humidity, Max Sea Level PressureIn, Mean Sea Level PressureIn, Min Sea Level PressureIn, Max VisibilityMiles, Mean VisibilityMiles, Min VisibilityMiles, Max Wind SpeedMPH, Mean Wind SpeedMPH, Max Gust SpeedMPH,PrecipitationIn, CloudCover, Events, WindDirDegrees
2012-9-1,91,81,70,70,69,68,93,72,50,30.20,30.10,30.02,10,10,10,15,5,21,0.00,3,,245
2012-9-2,92,81,70,72,69,67,93,70,47,30.04,29.96,29.86,10,10,3,26,10,33,0.29,5,Rain-Thunderstorm,209
2012-9-3,83,77,70,70,69,67,97,81,65,29.97,29.92,29.87,10,8,1,18,5,22,0.44,7,Rain,206
2012-9-4,84,78,71,73,71,70,94,82,69,29.91,29.88,29.86,10,10,7,15,4,20,T,7,Rain,221
2012-9-5,88,80,71,72,71,69,93,74,55,29.96,29.89,29.81,10,8,2,20,8,23,0.13,6,Rain-Thunderstorm,229
2012-9-6,87,79,71,70,69,66,93,72,51,30.01,29.93,29.87,10,10,5,9,2,13,T,4,Rain,241
2012-9-7,90,78,66,70,66,62,100,71,41,29.99,29.91,29.79,10,8,1,9,3,12,0.00,1,,230
2012-9-8,79,69,58,68,64,57,93,78,62,29.94,29.83,29.74,10,8,1,20,8,24,0.68,5,Rain,321
2012-9-9,78,66,53,59,54,50,100,70,39,30.04,29.98,29.92,10,5,0,9,3,17,0.00,4,Fog,53
2012-9-10,80,69,57,58,55,50,93,65,37,30.14,30.09,30.03,10,10,10,9,1,13,0.00,1,,341
2012-9-11,82,70,57,60,57,54,93,68,42,30.26,30.19,30.14,10,10,10,13,4,18,0.00,4,,308
2012-9-12,81,74,67,63,61,58,87,66,45,30.32,30.25,30.19,10,10,10,7,2,10,0.00,6,,271
2012-9-13,81,72,63,62,59,54,93,68,42,30.32,30.25,30.19,10,10,8,10,3,16,0.00,3,,31
2012-9-14,84,73,61,61,58,55,93,67,40,30.25,30.21,30.16,10,10,10,7,2,10,0.00,3,,249
2012-9-15,85,73,60,62,59,54,97,67,37,30.22,30.14,30.07,10,10,6,10,2,14,0.00,2,Rain,355
2012-9-16,83,75,66,64,62,60,87,67,47,30.11,30.05,30.00,10,10,8,9,2,13,T,4,,312
2012-9-17,70,68,66,67,65,63,100,91,81,30.03,29.93,29.75,10,3,1,12,3,14,2.94,7,Rain-Thunderstorm,51
2012-9-18,73,65,56,67,64,51,100,84,67,29.99,29.75,29.67,10,5,1,17,6,21,3.16,8,Rain,254
2012-9-19,73,63,52,54,51,48,96,70,44,30.12,30.06,29.99,10,10,10,15,6,18,0.00,1,,37
2012-9-20,79,66,52,60,56,51,93,71,48,30.12,30.06,30.00,10,10,9,15,4,22,0.00,1,,238
2012-9-21,81,69,57,63,57,51,93,65,36,30.07,30.01,29.93,10,10,6,17,5,22,0.00,1,,222
2012-9-22,82,70,58,62,55,44,84,60,35,30.07,29.98,29.93,10,10,10,21,10,26,0.00,3,,249
2012-9-23,72,61,50,50,42,32,89,58,26,30.21,30.14,30.07,10,10,10,12,3,15,0.00,0,,316
2012-9-24,72,58,43,45,41,35,89,59,28,30.25,30.20,30.13,10,10,10,17,4,22,0.00,0,,27
2012-9-25,80,63,46,60,51,45,93,66,39,30.21,30.15,30.09,10,10,10,15,2,20,0.00,1,,242
2012-9-26,81,69,57,60,57,55,93,68,42,30.21,30.15,30.11,10,10,10,13,5,20,0.00,0,,237
2012-9-27,83,70,57,62,59,55,100,73,46,30.20,30.15,30.09,10,8,0,12,3,16,0.00,2,Fog,242
2012-9-28,81,72,62,65,62,60,93,72,51,30.10,30.06,30.00,10,9,6,14,2,22,T,4,Rain,267
2012-9-29,79,71,62,65,61,53,100,78,56,30.02,29.96,29.87,10,9,6,14,5,16,T,6,Rain,286
2012-9-30,73,65,56,57,54,49,93,71,49,29.93,29.88,29.81,10,9,4,9,6,20,T,4,Rain,35